Time;durP1;ratioP1;P1;durP2;ratioP2;P2;SDS_P1;SDS_P2;PMS_P1;PMS_P2;Temp;Humidity;BMP_temperature;BMP_pressure;BME280_temperature;BME280_humidity;BME280_pressure;Samples;Min_cycle;Max_cycle;Signal;HPM_P1;HPM_P2
2022/08/09 00:02:08;;;;;;;10.00;5.85;;;;;;;15.13;100.00;102681.56;4979423;28;20046;-68
2022/08/09 00:04:34;;;;;;;10.88;6.15;;;;;;;15.12;100.00;102674.44;4980975;28;20835;-67
2022/08/09 00:07:00;;;;;;;10.07;5.45;;;;;;;15.05;100.00;102675.69;4980218;28;20043;-70
2022/08/09 00:09:26;;;;;;;7.63;5.93;;;;;;;14.98;100.00;102677.84;4979963;28;20053;-66
2022/08/09 00:11:53;;;;;;;9.75;5.85;;;;;;;14.82;100.00;102679.63;4980300;28;20092;-67
2022/08/09 00:14:18;;;;;;;8.13;5.32;;;;;;;14.72;100.00;102676.53;4980324;28;20035;-71
2022/08/09 00:16:47;;;;;;;13.15;6.63;;;;;;;14.75;100.00;102680.84;4980870;28;20046;-68
2022/08/09 00:19:13;;;;;;;9.43;6.05;;;;;;;14.70;100.00;102683.78;4979859;28;20072;-67
2022/08/09 00:21:39;;;;;;;11.52;6.20;;;;;;;14.75;100.00;102683.53;4981495;28;20570;-68
2022/08/09 00:24:04;;;;;;;7.45;5.35;;;;;;;14.72;100.00;102687.28;4960159;28;20454;-70
2022/08/09 00:26:30;;;;;;;11.07;6.20;;;;;;;14.83;100.00;102680.47;4976125;28;20042;-67
2022/08/09 00:28:56;;;;;;;10.45;6.07;;;;;;;14.71;100.00;102680.16;4980943;28;20050;-68
2022/08/09 00:31:23;;;;;;;13.02;6.03;;;;;;;14.70;100.00;102680.22;4979995;28;20038;-70
2022/08/09 00:33:50;;;;;;;10.10;6.28;;;;;;;14.70;100.00;102675.72;4981246;28;20149;-68
2022/08/09 00:36:16;;;;;;;10.90;6.05;;;;;;;14.59;100.00;102671.84;4978732;28;20109;-70
2022/08/09 00:38:42;;;;;;;12.30;6.60;;;;;;;14.59;100.00;102678.09;4980151;28;20571;-69
2022/08/09 00:41:08;;;;;;;11.35;6.45;;;;;;;14.57;100.00;102671.09;4973117;28;20043;-70
2022/08/09 00:43:36;;;;;;;13.95;7.22;;;;;;;14.55;100.00;102684.56;4971941;28;20556;-70
2022/08/09 00:46:04;;;;;;;10.02;6.65;;;;;;;14.33;100.00;102673.16;4981683;28;20109;-69
2022/08/09 00:48:30;;;;;;;10.45;6.57;;;;;;;14.20;100.00;102676.41;4980612;28;20088;-69
2022/08/09 00:50:55;;;;;;;14.90;7.57;;;;;;;14.18;100.00;102674.78;4980528;28;20126;-68
2022/08/09 00:53:21;;;;;;;16.30;7.63;;;;;;;14.26;100.00;102675.28;4981126;28;20034;-69
2022/08/09 00:55:47;;;;;;;12.27;6.53;;;;;;;14.37;100.00;102672.91;4979316;28;20046;-70
2022/08/09 00:58:12;;;;;;;15.88;7.38;;;;;;;14.40;100.00;102677.25;4962684;28;20038;-69
2022/08/09 01:00:40;;;;;;;9.90;6.55;;;;;;;14.29;100.00;102674.22;4981338;28;20042;-70
2022/08/09 01:03:33;;;;;;;9.73;6.43;;;;;;;14.24;100.00;102669.97;4981905;28;20057;-70
2022/08/09 01:06:06;;;;;;;14.18;7.70;;;;;;;14.04;100.00;102679.94;4956803;28;20049;-70
2022/08/09 01:08:57;;;;;;;15.38;7.38;;;;;;;14.16;100.00;102685.59;4984379;28;20072;-70
2022/08/09 01:11:35;;;;;;;14.48;6.97;;;;;;;14.21;100.00;102685.38;4983261;28;20046;-68
2022/08/09 01:14:12;;;;;;;12.45;6.88;;;;;;;14.20;100.00;102684.47;4984787;28;20045;-70
2022/08/09 01:16:43;;;;;;;9.95;7.07;;;;;;;14.16;100.00;102679.34;4984934;28;20111;-70
2022/08/09 01:19:24;;;;;;;12.48;7.85;;;;;;;14.16;100.00;102688.28;4983426;28;20104;-69
2022/08/09 01:22:11;;;;;;;14.82;7.38;;;;;;;14.01;100.00;102683.66;4984901;28;20054;-70
2022/08/09 01:24:55;;;;;;;11.63;7.60;;;;;;;13.97;100.00;102676.69;4983862;28;20042;-70
2022/08/09 01:27:25;;;;;;;15.40;7.60;;;;;;;14.07;100.00;102685.16;4984357;28;20030;-70
2022/08/09 01:29:59;;;;;;;9.63;7.38;;;;;;;13.99;100.00;102681.03;4982801;28;20049;-70
2022/08/09 01:32:36;;;;;;;18.83;8.32;;;;;;;13.74;100.00;102683.13;4984422;28;20038;-70
2022/08/09 01:35:07;;;;;;;12.75;8.30;;;;;;;13.68;100.00;102688.78;4998440;28;20552;-70
2022/08/09 01:37:34;;;;;;;14.82;6.80;;;;;;;13.63;100.00;102688.13;4992092;28;20117;-69
2022/08/09 01:40:03;;;;;;;8.90;6.80;;;;;;;13.71;100.00;102691.34;4989952;28;20551;-70
2022/08/09 01:42:30;;;;;;;16.05;8.13;;;;;;;13.66;100.00;102683.50;4984570;28;20065;-69
2022/08/09 01:44:56;;;;;;;8.95;6.60;;;;;;;13.67;100.00;102695.97;4980690;28;20047;-70
2022/08/09 01:47:24;;;;;;;14.73;7.65;;;;;;;13.65;100.00;102691.59;4977942;28;20408;-70
2022/08/09 01:49:50;;;;;;;14.02;7.55;;;;;;;13.65;100.00;102687.09;4979519;28;20467;-70
2022/08/09 01:52:19;;;;;;;14.38;6.93;;;;;;;13.62;100.00;102684.59;4979957;28;20097;-69
2022/08/09 01:54:47;;;;;;;18.52;7.53;;;;;;;13.57;100.00;102691.97;4995965;28;20096;-69
2022/08/09 01:57:16;;;;;;;13.85;7.35;;;;;;;13.58;100.00;102691.03;4983559;28;20042;-70
2022/08/09 01:59:50;;;;;;;15.57;7.15;;;;;;;13.60;100.00;102690.94;4983762;28;20124;-70
2022/08/09 02:02:18;;;;;;;11.65;7.63;;;;;;;13.63;100.00;102688.13;4983916;28;20823;-70
2022/08/09 02:04:44;;;;;;;14.60;7.97;;;;;;;13.66;100.00;102688.00;4983628;28;20742;-69
2022/08/09 02:07:15;;;;;;;13.52;8.00;;;;;;;13.56;100.00;102695.59;4983733;28;20038;-69
2022/08/09 02:09:56;;;;;;;11.80;8.43;;;;;;;13.51;100.00;102694.94;4983317;28;20495;-70
2022/08/09 02:12:23;;;;;;;11.18;7.72;;;;;;;13.52;100.00;102691.31;4983877;28;20053;-70
2022/08/09 02:14:51;;;;;;;14.07;8.25;;;;;;;13.44;100.00;102697.00;4983837;28;20388;-70
2022/08/09 02:17:23;;;;;;;14.38;8.27;;;;;;;13.50;100.00;102686.94;4983418;28;20042;-70
2022/08/09 02:19:49;;;;;;;15.07;8.40;;;;;;;13.44;100.00;102698.81;4983614;28;20537;-69
2022/08/09 02:22:36;;;;;;;20.90;9.73;;;;;;;13.35;100.00;102696.56;4981934;28;20088;-69
2022/08/09 02:25:08;;;;;;;15.23;8.75;;;;;;;13.35;100.00;102700.09;4987438;28;20497;-70
2022/08/09 02:27:37;;;;;;;21.23;8.57;;;;;;;13.33;100.00;102691.28;4991924;28;20042;-70
2022/08/09 02:30:04;;;;;;;17.75;8.07;;;;;;;13.36;100.00;102688.47;4979280;28;20035;-69
2022/08/09 02:32:32;;;;;;;18.92;7.93;;;;;;;13.35;100.00;102688.53;4971841;28;20066;-70
2022/08/09 02:35:03;;;;;;;15.18;8.82;;;;;;;13.44;100.00;102682.75;4982768;28;20471;-69
2022/08/09 02:37:30;;;;;;;17.48;8.75;;;;;;;13.43;100.00;102686.38;4983481;28;20074;-69
2022/08/09 02:40:00;;;;;;;16.52;8.48;;;;;;;13.44;100.00;102688.09;4982660;28;20052;-70
2022/08/09 02:42:30;;;;;;;15.38;8.30;;;;;;;13.40;100.00;102681.16;4981839;28;20081;-69
2022/08/09 02:45:03;;;;;;;14.27;8.48;;;;;;;13.47;100.00;102679.94;4981346;28;20459;-69
2022/08/09 02:47:31;;;;;;;14.88;8.35;;;;;;;13.27;100.00;102677.31;4982815;28;20034;-70
2022/08/09 02:50:08;;;;;;;14.82;8.80;;;;;;;13.09;100.00;102677.13;5011248;28;20046;-70
2022/08/09 02:52:39;;;;;;;18.50;8.73;;;;;;;13.07;100.00;102681.72;4988642;28;20052;-71
2022/08/09 02:55:07;;;;;;;17.33;9.05;;;;;;;13.01;100.00;102673.94;4990090;28;20614;-70
2022/08/09 02:57:34;;;;;;;24.05;9.45;;;;;;;12.95;100.00;102674.19;4982566;28;20512;-69
2022/08/09 03:00:00;;;;;;;15.93;8.73;;;;;;;12.91;100.00;102677.97;4969933;28;20812;-70
2022/08/09 03:02:27;;;;;;;16.17;9.20;;;;;;;12.94;100.00;102672.47;4992631;28;20109;-70
2022/08/09 03:04:59;;;;;;;14.32;9.30;;;;;;;13.04;100.00;102670.25;4982443;28;20491;-70
2022/08/09 03:07:25;;;;;;;21.52;10.20;;;;;;;13.00;100.00;102671.31;4984060;28;20154;-69
2022/08/09 03:09:52;;;;;;;20.25;10.00;;;;;;;13.04;100.00;102672.94;4992129;28;20098;-70
2022/08/09 03:12:22;;;;;;;17.38;9.68;;;;;;;12.96;100.00;102670.59;4979953;28;20067;-70
2022/08/09 03:14:49;;;;;;;18.77;11.25;;;;;;;12.99;100.00;102669.59;4980923;28;20038;-70
2022/08/09 03:17:15;;;;;;;22.40;10.35;;;;;;;12.95;100.00;102675.09;4981051;28;20042;-70
2022/08/09 03:19:41;;;;;;;18.10;10.75;;;;;;;12.82;100.00;102670.34;4967664;28;20403;-71
2022/08/09 03:22:09;;;;;;;18.50;10.60;;;;;;;12.80;100.00;102677.53;4982044;28;20042;-69
2022/08/09 03:24:34;;;;;;;18.45;10.38;;;;;;;12.83;100.00;102667.59;4980129;28;20049;-71
2022/08/09 03:27:02;;;;;;;18.77;10.85;;;;;;;12.85;100.00;102672.84;4979947;28;20042;-69
2022/08/09 03:29:28;;;;;;;16.65;10.43;;;;;;;12.77;100.00;102672.34;4980604;28;20070;-69
2022/08/09 03:31:55;;;;;;;18.35;10.73;;;;;;;12.83;100.00;102672.94;4988248;28;20156;-69
2022/08/09 03:34:20;;;;;;;18.73;10.55;;;;;;;12.77;100.00;102675.03;4976956;28;20074;-70
2022/08/09 03:36:46;;;;;;;16.27;9.88;;;;;;;12.80;100.00;102670.41;4980363;28;20058;-70
2022/08/09 03:39:11;;;;;;;19.35;9.93;;;;;;;12.84;100.00;102672.00;4991163;28;20053;-68
2022/08/09 03:41:37;;;;;;;20.33;10.68;;;;;;;12.80;100.00;102669.50;4997419;28;20799;-70
2022/08/09 03:44:02;;;;;;;17.35;10.32;;;;;;;12.69;100.00;102675.34;4980232;28;20042;-70
2022/08/09 03:46:28;;;;;;;20.75;11.02;;;;;;;12.56;100.00;102676.81;4980507;28;20859;-69
2022/08/09 03:48:56;;;;;;;23.80;11.98;;;;;;;12.59;100.00;102679.34;4981435;28;20022;-70
2022/08/09 03:51:24;;;;;;;19.10;11.25;;;;;;;12.60;100.00;102670.38;4983341;28;20031;-69
2022/08/09 03:53:52;;;;;;;21.60;10.93;;;;;;;12.60;100.00;102668.59;4977822;28;20772;-70
2022/08/09 03:56:17;;;;;;;24.73;11.75;;;;;;;12.58;100.00;102669.56;4970231;28;20491;-70
2022/08/09 03:58:43;;;;;;;21.00;11.80;;;;;;;12.67;100.00;102674.53;4980723;28;20038;-69
2022/08/09 04:01:12;;;;;;;23.02;11.82;;;;;;;12.61;100.00;102674.81;4981697;28;20050;-70
2022/08/09 04:03:38;;;;;;;24.67;11.93;;;;;;;12.68;100.00;102678.94;4981508;28;20038;-69
2022/08/09 04:06:05;;;;;;;32.65;13.23;;;;;;;12.72;100.00;102677.03;4981293;28;20801;-69
2022/08/09 04:08:33;;;;;;;24.35;12.60;;;;;;;12.71;100.00;102670.81;4979723;28;20125;-70
2022/08/09 04:10:59;;;;;;;23.42;11.35;;;;;;;12.73;100.00;102676.06;4980844;28;20046;-70
2022/08/09 04:13:25;;;;;;;27.58;12.93;;;;;;;12.81;100.00;102676.63;4981221;28;20078;-68
2022/08/09 04:15:50;;;;;;;19.83;10.60;;;;;;;12.90;100.00;102677.09;4981023;28;20057;-70
2022/08/09 04:18:16;;;;;;;19.55;11.07;;;;;;;12.81;100.00;102679.31;4981660;28;20049;-70
2022/08/09 04:20:41;;;;;;;26.42;11.30;;;;;;;12.75;100.00;102688.47;4980391;28;20057;-70
2022/08/09 04:23:07;;;;;;;22.13;11.23;;;;;;;12.80;100.00;102683.78;4981646;28;20034;-70
2022/08/09 04:25:33;;;;;;;24.77;11.40;;;;;;;12.69;100.00;102681.56;4985304;28;20050;-69
2022/08/09 04:27:59;;;;;;;28.38;11.95;;;;;;;12.75;100.00;102690.25;4981674;28;20360;-70
2022/08/09 04:30:25;;;;;;;29.15;12.43;;;;;;;12.75;100.00;102696.50;4981812;28;20141;-70
2022/08/09 04:32:51;;;;;;;33.35;13.25;;;;;;;12.89;100.00;102688.72;4979932;28;20039;-69
2022/08/09 04:35:19;;;;;;;28.70;13.40;;;;;;;12.79;100.00;102692.75;4966317;28;20038;-70
2022/08/09 04:37:44;;;;;;;32.88;13.02;;;;;;;12.98;100.00;102698.19;4985551;28;20061;-70
2022/08/09 04:40:11;;;;;;;26.02;11.68;;;;;;;13.11;100.00;102696.72;4986070;28;20046;-68
2022/08/09 04:42:38;;;;;;;25.05;12.70;;;;;;;12.98;100.00;102700.84;4984887;28;20505;-70
2022/08/09 04:45:03;;;;;;;30.10;11.90;;;;;;;12.92;100.00;102710.03;4987872;28;20034;-69
2022/08/09 04:47:29;;;;;;;26.73;12.48;;;;;;;12.96;100.00;102703.59;4988335;28;20041;-68
2022/08/09 04:49:57;;;;;;;27.83;11.98;;;;;;;13.22;100.00;102704.31;4985881;28;20042;-70
2022/08/09 04:52:25;;;;;;;28.65;12.57;;;;;;;13.60;100.00;102705.22;4986948;28;20497;-70
2022/08/09 04:54:53;;;;;;;25.38;12.00;;;;;;;13.54;100.00;102708.19;4985779;28;20176;-70
2022/08/09 04:57:20;;;;;;;31.88;13.38;;;;;;;13.71;100.00;102712.78;4985936;28;20552;-70
2022/08/09 04:59:45;;;;;;;25.08;12.07;;;;;;;13.83;100.00;102714.88;4994857;28;20084;-69
2022/08/09 05:02:10;;;;;;;28.40;11.50;;;;;;;13.90;100.00;102708.28;4988043;28;20041;-70
2022/08/09 05:04:36;;;;;;;27.85;12.18;;;;;;;13.75;100.00;102711.69;4976225;28;20043;-71
2022/08/09 05:07:02;;;;;;;27.25;12.20;;;;;;;13.74;100.00;102718.84;4983522;28;20042;-69
2022/08/09 05:09:29;;;;;;;30.58;12.95;;;;;;;13.98;100.00;102721.34;4989705;28;20065;-70
2022/08/09 05:11:55;;;;;;;22.50;11.85;;;;;;;14.01;100.00;102723.88;4989075;28;20173;-70
2022/08/09 05:14:21;;;;;;;22.95;12.02;;;;;;;13.78;100.00;102730.31;4988040;28;20131;-69
2022/08/09 05:16:46;;;;;;;20.65;11.27;;;;;;;13.98;100.00;102732.94;4992252;28;20049;-70
2022/08/09 05:19:13;;;;;;;24.35;11.65;;;;;;;14.20;100.00;102726.53;4991497;28;20038;-69
2022/08/09 05:21:40;;;;;;;21.63;12.32;;;;;;;14.10;100.00;102735.97;4990081;28;20936;-69
2022/08/09 05:24:05;;;;;;;24.98;12.90;;;;;;;14.22;100.00;102728.22;4987180;28;20066;-70
2022/08/09 05:26:32;;;;;;;22.40;11.48;;;;;;;14.45;100.00;102728.88;4989846;28;20126;-70
2022/08/09 05:28:57;;;;;;;25.67;11.30;;;;;;;14.38;100.00;102727.47;4987487;28;20494;-68
2022/08/09 05:31:23;;;;;;;26.38;12.73;;;;;;;14.70;100.00;102717.81;4990141;28;20101;-70
2022/08/09 05:33:48;;;;;;;20.20;11.48;;;;;;;15.12;100.00;102719.25;4987578;28;20042;-68
2022/08/09 05:36:14;;;;;;;21.30;11.52;;;;;;;15.11;100.00;102725.56;4986783;28;20042;-69
2022/08/09 05:38:39;;;;;;;21.48;10.30;;;;;;;14.98;100.00;102726.22;4985982;28;20694;-69
2022/08/09 05:41:05;;;;;;;25.58;11.48;;;;;;;14.94;100.00;102735.38;4986343;28;20038;-70
2022/08/09 05:43:34;;;;;;;19.80;10.15;;;;;;;14.94;100.00;102737.19;4990708;28;20487;-70
2022/08/09 05:46:00;;;;;;;20.40;11.18;;;;;;;15.26;100.00;102744.47;4981726;28;20054;-69
2022/08/09 05:48:26;;;;;;;22.30;11.02;;;;;;;14.89;100.00;102739.25;4990614;28;20130;-69
2022/08/09 05:50:52;;;;;;;19.33;11.10;;;;;;;14.97;100.00;102737.06;4990490;28;20049;-70
2022/08/09 05:53:17;;;;;;;23.73;11.07;;;;;;;15.17;100.00;102742.25;4982183;28;20034;-70
2022/08/09 05:55:43;;;;;;;21.10;11.70;;;;;;;15.11;100.00;102744.38;4987571;28;20041;-69
2022/08/09 05:58:09;;;;;;;26.23;11.18;;;;;;;15.18;100.00;102738.63;4991383;28;20034;-69
2022/08/09 06:00:34;;;;;;;21.92;10.85;;;;;;;15.34;100.00;102745.88;4983692;28;20030;-70
2022/08/09 06:03:02;;;;;;;27.42;12.55;;;;;;;15.64;100.00;102741.56;4983535;28;20441;-70
2022/08/09 06:05:29;;;;;;;22.42;11.45;;;;;;;15.57;100.00;102741.97;4983137;28;20039;-70
2022/08/09 06:07:54;;;;;;;20.35;11.20;;;;;;;15.96;100.00;102744.31;4983085;28;20038;-69
2022/08/09 06:10:20;;;;;;;21.58;11.93;;;;;;;15.70;100.00;102746.59;4983425;28;20105;-69
2022/08/09 06:12:45;;;;;;;24.25;10.65;;;;;;;15.82;100.00;102752.28;4983604;28;20034;-69
2022/08/09 06:15:11;;;;;;;16.35;10.38;;;;;;;15.97;100.00;102760.38;4985950;28;20490;-69
2022/08/09 06:17:37;;;;;;;18.15;10.20;;;;;;;16.01;100.00;102752.97;4984206;28;20034;-68
2022/08/09 06:20:03;;;;;;;17.88;10.80;;;;;;;16.43;100.00;102746.16;4982675;28;20064;-69
2022/08/09 06:22:29;;;;;;;16.30;9.95;;;;;;;16.68;100.00;102750.97;4982412;28;20038;-69
2022/08/09 06:24:54;;;;;;;21.45;9.85;;;;;;;16.92;100.00;102754.97;4984670;28;20100;-70
2022/08/09 06:27:20;;;;;;;17.27;10.10;;;;;;;17.34;100.00;102754.16;4987869;28;20034;-68
2022/08/09 06:29:45;;;;;;;15.85;10.70;;;;;;;17.29;100.00;102748.19;4980988;28;20038;-70
2022/08/09 06:32:11;;;;;;;18.25;10.27;;;;;;;17.23;100.00;102753.97;4982393;28;20045;-69
2022/08/09 06:34:36;;;;;;;18.73;10.27;;;;;;;17.34;100.00;102750.59;4983225;28;20046;-68
2022/08/09 06:37:02;;;;;;;19.70;9.95;;;;;;;17.46;100.00;102748.97;4961693;28;20043;-68
2022/08/09 06:39:29;;;;;;;18.35;10.00;;;;;;;17.70;100.00;102750.16;4977544;28;20035;-70
2022/08/09 06:41:54;;;;;;;18.23;9.80;;;;;;;17.98;100.00;102756.53;4980650;28;20068;-68
2022/08/09 06:44:20;;;;;;;17.63;8.30;;;;;;;18.21;100.00;102758.59;4980692;28;20042;-70
2022/08/09 06:46:47;;;;;;;14.10;9.20;;;;;;;18.11;100.00;102760.16;4981486;28;20480;-70
2022/08/09 06:49:12;;;;;;;15.23;9.50;;;;;;;18.79;100.00;102752.06;4980421;28;20117;-69
2022/08/09 06:51:38;;;;;;;14.52;8.88;;;;;;;18.66;100.00;102752.97;4980062;28;20045;-69
2022/08/09 06:54:03;;;;;;;14.30;8.52;;;;;;;18.58;100.00;102754.34;4967900;28;20399;-68
2022/08/09 06:56:29;;;;;;;17.30;9.32;;;;;;;18.97;99.83;102757.19;4981153;28;20042;-70
2022/08/09 06:58:54;;;;;;;17.40;9.13;;;;;;;19.09;99.82;102757.22;4983514;28;20039;-69
2022/08/09 07:01:20;;;;;;;12.65;8.50;;;;;;;19.06;97.24;102759.25;4984695;28;20045;-70
2022/08/09 07:03:45;;;;;;;15.75;9.30;;;;;;;19.44;98.19;102755.75;4989442;28;20038;-69
2022/08/09 07:06:11;;;;;;;17.60;8.63;;;;;;;19.57;96.03;102762.00;4986131;28;20049;-69
2022/08/09 07:08:36;;;;;;;13.93;7.63;;;;;;;19.72;93.41;102768.22;4991959;28;20585;-68
2022/08/09 07:11:02;;;;;;;11.63;7.88;;;;;;;19.50;94.52;102769.72;4983600;28;20698;-68
2022/08/09 07:13:28;;;;;;;18.48;9.32;;;;;;;19.49;94.95;102770.69;4982063;28;20566;-68
2022/08/09 07:15:53;;;;;;;14.77;7.95;;;;;;;19.91;92.51;102768.63;4991502;28;20030;-67
2022/08/09 07:18:19;;;;;;;13.05;8.35;;;;;;;20.06;91.64;102764.81;4981005;28;20917;-68
2022/08/09 07:20:44;;;;;;;11.93;7.15;;;;;;;19.81;91.41;102759.44;4981081;28;20495;-70
2022/08/09 07:23:11;;;;;;;11.30;7.43;;;;;;;19.93;92.49;102763.97;4979572;28;20042;-70
2022/08/09 07:25:37;;;;;;;11.75;6.78;;;;;;;19.85;89.07;102771.78;4981366;28;20041;-71
2022/08/09 07:28:02;;;;;;;14.82;6.55;;;;;;;20.46;89.45;102772.69;4981586;28;21189;-69
2022/08/09 07:30:28;;;;;;;8.25;5.70;;;;;;;20.52;86.46;102755.13;4979817;28;20050;-67
2022/08/09 07:32:53;;;;;;;11.43;6.85;;;;;;;20.52;88.03;102764.13;4981740;28;20049;-71
2022/08/09 07:35:19;;;;;;;8.30;5.80;;;;;;;20.60;85.81;102769.00;4984649;28;20037;-70
2022/08/09 07:37:44;;;;;;;16.58;7.22;;;;;;;20.64;86.18;102762.38;4988980;28;20038;-69
2022/08/09 07:40:15;;;;;;;12.93;7.45;;;;;;;21.12;87.42;102768.56;4981045;28;20121;-69
2022/08/09 07:42:55;;;;;;;10.73;5.35;;;;;;;20.93;85.68;102760.13;4967559;28;20046;-69
2022/08/09 07:45:26;;;;;;;9.65;6.57;;;;;;;21.06;83.48;102762.78;4985400;28;20044;-70
2022/08/09 07:47:52;;;;;;;7.40;5.05;;;;;;;21.00;85.31;102766.81;4980403;28;20050;-70
2022/08/09 07:50:19;;;;;;;9.30;5.72;;;;;;;21.36;84.84;102759.53;4986672;28;20034;-68
2022/08/09 07:52:45;;;;;;;8.07;5.20;;;;;;;21.45;81.07;102761.53;4986997;28;20046;-68
2022/08/09 07:55:11;;;;;;;13.00;5.65;;;;;;;21.55;81.98;102758.97;4980810;28;20045;-70
2022/08/09 07:57:36;;;;;;;9.00;5.32;;;;;;;21.32;80.78;102755.34;4977065;28;20053;-67
2022/08/09 08:00:04;;;;;;;7.15;4.35;;;;;;;21.94;81.04;102760.34;4979610;28;20034;-68
2022/08/09 08:02:37;;;;;;;6.00;4.38;;;;;;;21.99;80.13;102758.09;4984557;28;20088;-68
2022/08/09 08:05:03;;;;;;;6.45;4.55;;;;;;;22.05;82.01;102768.47;4981294;28;20880;-69
2022/08/09 08:07:29;;;;;;;7.60;4.07;;;;;;;21.75;78.13;102763.66;4983945;28;20038;-68
2022/08/09 08:09:54;;;;;;;8.48;4.43;;;;;;;21.69;76.79;102770.47;4979661;28;20221;-67
2022/08/09 08:12:20;;;;;;;5.90;3.50;;;;;;;21.38;77.36;102772.00;4981351;28;20491;-68
2022/08/09 08:14:46;;;;;;;8.70;3.65;;;;;;;21.29;78.92;102761.84;4983955;28;20046;-70
2022/08/09 08:17:11;;;;;;;5.88;3.95;;;;;;;21.69;79.60;102766.88;4988583;28;20054;-69
2022/08/09 08:19:37;;;;;;;6.40;3.60;;;;;;;22.25;76.70;102750.56;4979892;28;20479;-69
2022/08/09 08:22:03;;;;;;;6.35;3.35;;;;;;;22.44;73.79;102758.91;4970916;28;20133;-70
2022/08/09 08:24:29;;;;;;;5.38;3.00;;;;;;;22.32;74.08;102759.91;4968362;28;20514;-69
2022/08/09 08:26:54;;;;;;;6.93;3.20;;;;;;;22.26;74.93;102760.44;4986585;28;20558;-70
2022/08/09 08:29:20;;;;;;;4.45;3.13;;;;;;;21.86;74.68;102763.66;4984312;28;20038;-69
2022/08/09 08:31:45;;;;;;;4.80;3.00;;;;;;;22.19;75.19;102756.50;4989617;28;20151;-69
2022/08/09 08:34:11;;;;;;;3.78;2.55;;;;;;;22.20;73.27;102772.69;4993878;28;20458;-68
2022/08/09 08:36:37;;;;;;;4.50;1.80;;;;;;;22.10;71.34;102770.81;4983707;28;20042;-67
2022/08/09 08:39:03;;;;;;;8.15;2.42;;;;;;;21.70;70.47;102771.31;4983479;28;20038;-68
2022/08/09 08:41:29;;;;;;;4.38;1.92;;;;;;;21.71;71.08;102771.19;4998925;28;20125;-69
2022/08/09 08:43:54;;;;;;;3.88;2.38;;;;;;;21.92;70.69;102759.56;4984312;28;20050;-67
2022/08/09 08:46:24;;;;;;;3.78;1.60;;;;;;;21.69;67.80;102762.31;4985489;28;20041;-68
2022/08/09 08:48:50;;;;;;;2.80;1.80;;;;;;;22.48;69.51;102757.66;4985169;28;20087;-68
2022/08/09 08:51:16;;;;;;;5.18;2.65;;;;;;;22.17;68.78;102766.63;4986459;28;20376;-68
2022/08/09 08:53:42;;;;;;;2.15;1.55;;;;;;;22.31;67.12;102777.22;4985535;28;20030;-68
2022/08/09 08:56:07;;;;;;;3.58;1.50;;;;;;;22.47;66.27;102765.94;4992479;28;20617;-68
2022/08/09 08:58:34;;;;;;;2.83;1.50;;;;;;;23.04;67.19;102766.59;4995240;28;20117;-68
2022/08/09 09:01:02;;;;;;;1.10;0.90;;;;;;;22.95;66.78;102774.59;4990684;28;20054;-68
2022/08/09 09:03:33;;;;;;;4.40;1.50;;;;;;;22.62;65.14;102778.25;4988435;28;20929;-68
2022/08/09 09:06:00;;;;;;;4.13;1.17;;;;;;;22.27;63.40;102778.47;4986257;28;20112;-69
2022/08/09 09:08:30;;;;;;;1.75;1.40;;;;;;;22.66;63.05;102773.44;4994755;28;20043;-68
2022/08/09 09:10:56;;;;;;;3.30;1.67;;;;;;;22.91;61.97;102772.25;4990113;28;20046;-68
2022/08/09 09:13:24;;;;;;;1.30;0.80;;;;;;;22.64;64.94;102772.69;4988148;28;20046;-68
2022/08/09 09:15:50;;;;;;;1.30;1.20;;;;;;;23.23;65.73;102767.59;4989251;28;20038;-69
2022/08/09 09:18:15;;;;;;;2.97;1.48;;;;;;;23.16;59.69;102774.59;4991296;28;20080;-69
2022/08/09 09:20:42;;;;;;;1.75;1.65;;;;;;;23.13;62.53;102771.25;4991179;28;20046;-69
2022/08/09 09:23:08;;;;;;;2.17;1.65;;;;;;;23.27;66.79;102771.78;5007866;28;20471;-69
2022/08/09 09:25:42;;;;;;;4.28;1.48;;;;;;;23.05;61.48;102773.81;4994330;28;20045;-68
2022/08/09 09:28:10;;;;;;;4.00;2.08;;;;;;;23.23;64.43;102775.78;4989960;28;20074;-69
2022/08/09 09:30:53;;;;;;;2.58;1.83;;;;;;;22.97;66.01;102778.03;4998481;28;20038;-69
2022/08/09 09:33:18;;;;;;;1.98;1.77;;;;;;;23.26;69.37;102774.66;4996128;28;20097;-70
2022/08/09 09:35:56;;;;;;;3.40;1.95;;;;;;;23.16;63.10;102754.69;4993923;28;20144;-69
2022/08/09 09:38:37;;;;;;;2.28;1.58;;;;;;;23.48;61.16;102765.47;4995335;28;20066;-68
2022/08/09 09:41:03;;;;;;;3.88;2.10;;;;;;;23.50;65.28;102767.06;5001525;28;20038;-69
2022/08/09 09:43:28;;;;;;;7.50;2.15;;;;;;;23.40;64.30;102776.19;4995743;28;20041;-69
2022/08/09 09:45:54;;;;;;;3.65;1.70;;;;;;;23.21;64.80;102769.63;4994906;28;20053;-69
2022/08/09 09:48:21;;;;;;;2.25;1.35;;;;;;;23.28;62.64;102767.22;4995264;28;20053;-67
2022/08/09 09:50:49;;;;;;;3.35;1.50;;;;;;;23.26;62.00;102778.25;5004815;28;20058;-68
2022/08/09 09:53:17;;;;;;;3.03;1.63;;;;;;;23.42;64.31;102775.03;4995083;28;20121;-70
2022/08/09 09:56:00;;;;;;;2.60;1.52;;;;;;;23.52;60.92;102775.97;4993392;28;20046;-69
2022/08/09 09:58:47;;;;;;;2.22;1.25;;;;;;;23.33;61.02;102775.84;4990862;28;20565;-67
2022/08/09 10:01:22;;;;;;;2.25;1.52;;;;;;;23.73;64.74;102777.81;4982104;28;20372;-68
2022/08/09 10:03:49;;;;;;;4.05;1.60;;;;;;;23.59;60.01;102769.97;4990997;28;20038;-69
2022/08/09 10:06:15;;;;;;;2.85;1.45;;;;;;;23.49;59.09;102775.38;4990767;28;20052;-67
2022/08/09 10:08:43;;;;;;;1.20;1.10;;;;;;;23.71;58.61;102777.09;4989767;28;20054;-67
2022/08/09 10:11:19;;;;;;;1.85;1.25;;;;;;;23.94;57.51;102770.44;4989810;28;20042;-66
2022/08/09 10:13:46;;;;;;;3.05;1.60;;;;;;;23.72;60.51;102782.41;4989214;28;20046;-68
2022/08/09 10:16:12;;;;;;;2.78;1.33;;;;;;;23.96;59.20;102779.38;4987892;28;20058;-67
2022/08/09 10:18:37;;;;;;;7.10;1.70;;;;;;;23.50;57.47;102794.31;4988680;28;20034;-67
2022/08/09 10:21:09;;;;;;;1.50;1.17;;;;;;;23.90;61.66;102774.47;4988119;28;20129;-68
2022/08/09 10:23:36;;;;;;;2.95;1.45;;;;;;;24.09;59.48;102775.53;4988360;28;20049;-68
2022/08/09 10:26:03;;;;;;;2.58;1.10;;;;;;;23.50;61.11;102786.16;4993142;28;20134;-66
2022/08/09 10:28:31;;;;;;;1.15;1.00;;;;;;;23.81;57.90;102767.13;4985488;28;20042;-67
2022/08/09 10:30:58;;;;;;;3.53;1.35;;;;;;;24.37;58.64;102765.75;4987206;28;20034;-69
2022/08/09 10:33:23;;;;;;;1.67;1.27;;;;;;;23.95;58.96;102772.19;4997029;28;20467;-68
2022/08/09 10:35:49;;;;;;;3.42;1.08;;;;;;;24.03;57.96;102755.13;4987315;28;20125;-69
2022/08/09 10:38:16;;;;;;;1.77;1.23;;;;;;;24.06;58.55;102752.16;4995182;28;20034;-68
2022/08/09 10:40:43;;;;;;;2.08;1.42;;;;;;;24.05;56.26;102753.16;4988140;28;20041;-68
2022/08/09 10:43:09;;;;;;;2.35;1.13;;;;;;;24.49;58.78;102751.81;4997350;28;20145;-67
2022/08/09 10:45:35;;;;;;;2.47;1.23;;;;;;;24.34;53.74;102753.19;4990596;28;20041;-68
2022/08/09 10:48:07;;;;;;;3.45;1.33;;;;;;;24.58;56.07;102744.66;4988811;28;20128;-68
2022/08/09 10:51:13;;;;;;;3.13;1.23;;;;;;;23.82;56.08;102749.75;4994895;28;20042;-71
2022/08/09 10:53:59;;;;;;;1.77;1.05;;;;;;;24.38;57.09;102737.47;4985639;28;20093;-67
2022/08/09 10:56:32;;;;;;;4.22;0.95;;;;;;;24.45;55.82;102744.06;4984757;28;20052;-68
2022/08/09 10:58:59;;;;;;;2.17;1.10;;;;;;;24.63;55.42;102739.63;4983466;28;20105;-69
2022/08/09 11:01:30;;;;;;;4.15;0.95;;;;;;;24.78;57.86;102735.47;4982464;28;20081;-71
2022/08/09 11:04:11;;;;;;;3.47;1.33;;;;;;;24.43;58.76;102744.22;4983638;28;20046;-67
2022/08/09 11:06:38;;;;;;;1.60;0.95;;;;;;;24.53;54.34;102741.50;4981715;28;20034;-68
2022/08/09 11:09:05;;;;;;;4.13;1.10;;;;;;;24.48;52.43;102741.91;4982336;28;20084;-68
2022/08/09 11:11:53;;;;;;;2.88;1.48;;;;;;;24.63;55.08;102728.72;4980436;28;20248;-70
2022/08/09 11:14:36;;;;;;;1.67;1.10;;;;;;;24.63;54.34;102734.16;4981845;28;20398;-69
2022/08/09 11:17:23;;;;;;;1.42;0.90;;;;;;;24.65;52.74;102740.38;4981838;28;20511;-70